sensor_id;sensor_type;location;lat;lon;timestamp;temperature;humidity
55211;DHT22;41082;52.822;6.666;2022-12-18T00:01:41;-2.20;99.90
55211;DHT22;41082;52.822;6.666;2022-12-18T00:04:12;-2.20;99.90
55211;DHT22;41082;52.822;6.666;2022-12-18T00:06:40;-2.20;99.90
55211;DHT22;41082;52.822;6.666;2022-12-18T00:09:06;-2.20;99.90
55211;DHT22;41082;52.822;6.666;2022-12-18T00:11:32;-2.20;99.90
55211;DHT22;41082;52.822;6.666;2022-12-18T00:13:59;-2.20;99.90
55211;DHT22;41082;52.822;6.666;2022-12-18T00:16:26;-2.30;99.90
55211;DHT22;41082;52.822;6.666;2022-12-18T00:18:55;-2.20;99.90
55211;DHT22;41082;52.822;6.666;2022-12-18T00:21:21;-2.30;99.90
55211;DHT22;41082;52.822;6.666;2022-12-18T00:23:49;-2.30;99.90
55211;DHT22;41082;52.822;6.666;2022-12-18T00:26:17;-2.30;99.90
55211;DHT22;41082;52.822;6.666;2022-12-18T00:28:44;-2.30;99.90
55211;DHT22;41082;52.822;6.666;2022-12-18T00:31:19;-2.30;99.90
55211;DHT22;41082;52.822;6.666;2022-12-18T00:33:45;-2.40;99.90
55211;DHT22;41082;52.822;6.666;2022-12-18T00:36:13;-2.40;99.90
55211;DHT22;41082;52.822;6.666;2022-12-18T00:38:40;-2.40;99.90
55211;DHT22;41082;52.822;6.666;2022-12-18T00:41:07;-2.40;99.90
55211;DHT22;41082;52.822;6.666;2022-12-18T00:43:36;-2.40;99.90
55211;DHT22;41082;52.822;6.666;2022-12-18T00:46:02;-2.40;99.90
55211;DHT22;41082;52.822;6.666;2022-12-18T00:48:28;-2.50;99.90
55211;DHT22;41082;52.822;6.666;2022-12-18T00:50:53;-2.40;99.90
55211;DHT22;41082;52.822;6.666;2022-12-18T00:53:19;-2.40;99.90
55211;DHT22;41082;52.822;6.666;2022-12-18T00:55:45;-2.40;99.90
55211;DHT22;41082;52.822;6.666;2022-12-18T00:58:12;-2.40;99.90
55211;DHT22;41082;52.822;6.666;2022-12-18T01:00:38;-2.40;99.90
55211;DHT22;41082;52.822;6.666;2022-12-18T01:03:04;-2.40;99.90
55211;DHT22;41082;52.822;6.666;2022-12-18T01:05:30;-2.40;99.90
55211;DHT22;41082;52.822;6.666;2022-12-18T01:07:56;-2.50;99.90
55211;DHT22;41082;52.822;6.666;2022-12-18T01:10:22;-2.50;99.90
55211;DHT22;41082;52.822;6.666;2022-12-18T01:12:49;-2.50;99.90
55211;DHT22;41082;52.822;6.666;2022-12-18T01:15:15;-2.50;99.90
55211;DHT22;41082;52.822;6.666;2022-12-18T01:17:41;-2.50;99.90
55211;DHT22;41082;52.822;6.666;2022-12-18T01:20:08;-2.60;99.90
55211;DHT22;41082;52.822;6.666;2022-12-18T01:22:35;-2.60;99.90
55211;DHT22;41082;52.822;6.666;2022-12-18T01:25:01;-2.60;99.90
55211;DHT22;41082;52.822;6.666;2022-12-18T01:27:27;-2.60;99.90
55211;DHT22;41082;52.822;6.666;2022-12-18T01:29:52;-2.60;99.90
55211;DHT22;41082;52.822;6.666;2022-12-18T01:32:18;-2.60;99.90
55211;DHT22;41082;52.822;6.666;2022-12-18T01:34:44;-2.70;99.90
55211;DHT22;41082;52.822;6.666;2022-12-18T01:37:10;-2.60;99.90
55211;DHT22;41082;52.822;6.666;2022-12-18T01:39:36;-2.70;99.90
55211;DHT22;41082;52.822;6.666;2022-12-18T01:42:13;-2.70;99.90
55211;DHT22;41082;52.822;6.666;2022-12-18T01:47:39;-2.70;99.90
55211;DHT22;41082;52.822;6.666;2022-12-18T01:53:00;-2.70;99.90
55211;DHT22;41082;52.822;6.666;2022-12-18T01:55:30;-2.70;99.90
55211;DHT22;41082;52.822;6.666;2022-12-18T01:57:58;-2.70;99.90
55211;DHT22;41082;52.822;6.666;2022-12-18T02:00:26;-2.70;99.90
55211;DHT22;41082;52.822;6.666;2022-12-18T02:02:52;-2.80;99.90
55211;DHT22;41082;52.822;6.666;2022-12-18T02:08:23;-2.80;99.90
55211;DHT22;41082;52.822;6.666;2022-12-18T02:16:21;-2.90;99.90
55211;DHT22;41082;52.822;6.666;2022-12-18T02:18:53;-2.90;99.90
55211;DHT22;41082;52.822;6.666;2022-12-18T02:24:28;-3.00;99.90
55211;DHT22;41082;52.822;6.666;2022-12-18T02:27:07;-3.00;99.90
55211;DHT22;41082;52.822;6.666;2022-12-18T02:29:46;-3.00;99.90
55211;DHT22;41082;52.822;6.666;2022-12-18T02:32:20;-3.10;99.90
55211;DHT22;41082;52.822;6.666;2022-12-18T02:34:48;-3.10;99.90
55211;DHT22;41082;52.822;6.666;2022-12-18T02:37:17;-3.10;99.90
55211;DHT22;41082;52.822;6.666;2022-12-18T02:39:45;-3.10;99.90
55211;DHT22;41082;52.822;6.666;2022-12-18T02:42:12;-3.10;99.90
55211;DHT22;41082;52.822;6.666;2022-12-18T02:44:45;-3.10;99.90
55211;DHT22;41082;52.822;6.666;2022-12-18T02:47:13;-3.10;99.90
55211;DHT22;41082;52.822;6.666;2022-12-18T02:53:02;-3.20;99.90
55211;DHT22;41082;52.822;6.666;2022-12-18T03:00:42;-3.30;99.90
55211;DHT22;41082;52.822;6.666;2022-12-18T03:05:43;-3.30;99.90
55211;DHT22;41082;52.822;6.666;2022-12-18T03:08:18;-3.30;99.90
55211;DHT22;41082;52.822;6.666;2022-12-18T03:10:54;-3.30;99.90
55211;DHT22;41082;52.822;6.666;2022-12-18T03:13:39;-3.30;99.90
55211;DHT22;41082;52.822;6.666;2022-12-18T03:16:11;-3.40;99.90
55211;DHT22;41082;52.822;6.666;2022-12-18T03:18:38;-3.40;99.90
55211;DHT22;41082;52.822;6.666;2022-12-18T03:21:07;-3.40;99.90
55211;DHT22;41082;52.822;6.666;2022-12-18T03:23:36;-3.40;99.90
55211;DHT22;41082;52.822;6.666;2022-12-18T03:26:07;-3.50;99.90
55211;DHT22;41082;52.822;6.666;2022-12-18T03:28:38;-3.50;99.90
55211;DHT22;41082;52.822;6.666;2022-12-18T03:31:08;-3.50;99.90
55211;DHT22;41082;52.822;6.666;2022-12-18T03:33:55;-3.50;99.90
55211;DHT22;41082;52.822;6.666;2022-12-18T03:36:22;-3.50;99.90
55211;DHT22;41082;52.822;6.666;2022-12-18T03:38:49;-3.50;99.90
55211;DHT22;41082;52.822;6.666;2022-12-18T03:41:31;-3.60;99.90
55211;DHT22;41082;52.822;6.666;2022-12-18T03:49:36;-3.60;99.90
55211;DHT22;41082;52.822;6.666;2022-12-18T03:52:14;-3.60;99.90
55211;DHT22;41082;52.822;6.666;2022-12-18T03:54:43;-3.60;99.90
55211;DHT22;41082;52.822;6.666;2022-12-18T03:57:16;-3.60;99.90
55211;DHT22;41082;52.822;6.666;2022-12-18T03:59:44;-3.70;99.90
55211;DHT22;41082;52.822;6.666;2022-12-18T04:02:11;-3.70;99.90
55211;DHT22;41082;52.822;6.666;2022-12-18T04:04:38;-3.70;99.90
55211;DHT22;41082;52.822;6.666;2022-12-18T04:07:05;-3.70;99.90
55211;DHT22;41082;52.822;6.666;2022-12-18T04:09:33;-3.70;99.90
55211;DHT22;41082;52.822;6.666;2022-12-18T04:11:59;-3.70;99.90
55211;DHT22;41082;52.822;6.666;2022-12-18T04:14:24;-3.70;99.90
55211;DHT22;41082;52.822;6.666;2022-12-18T04:16:50;-3.80;99.90
55211;DHT22;41082;52.822;6.666;2022-12-18T04:19:16;-3.70;99.90
55211;DHT22;41082;52.822;6.666;2022-12-18T04:21:41;-3.80;99.90
55211;DHT22;41082;52.822;6.666;2022-12-18T04:24:07;-3.80;99.90
55211;DHT22;41082;52.822;6.666;2022-12-18T04:26:33;-3.80;99.90
55211;DHT22;41082;52.822;6.666;2022-12-18T04:28:59;-3.80;99.90
55211;DHT22;41082;52.822;6.666;2022-12-18T04:31:25;-3.80;99.90
55211;DHT22;41082;52.822;6.666;2022-12-18T04:33:50;-3.80;99.90
55211;DHT22;41082;52.822;6.666;2022-12-18T04:36:16;-3.80;99.90
55211;DHT22;41082;52.822;6.666;2022-12-18T04:38:42;-3.80;99.90
55211;DHT22;41082;52.822;6.666;2022-12-18T04:41:07;-3.80;99.90
55211;DHT22;41082;52.822;6.666;2022-12-18T04:43:33;-3.90;99.90
55211;DHT22;41082;52.822;6.666;2022-12-18T04:46:08;-3.90;99.90
55211;DHT22;41082;52.822;6.666;2022-12-18T04:48:34;-3.90;99.90
55211;DHT22;41082;52.822;6.666;2022-12-18T04:51:00;-3.90;99.90
55211;DHT22;41082;52.822;6.666;2022-12-18T04:53:25;-3.90;99.90
55211;DHT22;41082;52.822;6.666;2022-12-18T04:56:01;-3.90;99.90
55211;DHT22;41082;52.822;6.666;2022-12-18T04:58:27;-3.90;99.90
55211;DHT22;41082;52.822;6.666;2022-12-18T05:00:52;-4.00;99.90
55211;DHT22;41082;52.822;6.666;2022-12-18T05:03:18;-3.90;99.90
55211;DHT22;41082;52.822;6.666;2022-12-18T05:05:44;-4.00;99.90
55211;DHT22;41082;52.822;6.666;2022-12-18T05:08:09;-4.00;99.90
55211;DHT22;41082;52.822;6.666;2022-12-18T05:10:35;-4.00;99.90
55211;DHT22;41082;52.822;6.666;2022-12-18T05:13:00;-4.00;99.90
55211;DHT22;41082;52.822;6.666;2022-12-18T05:15:30;-4.00;99.90
55211;DHT22;41082;52.822;6.666;2022-12-18T05:17:57;-4.10;99.90
55211;DHT22;41082;52.822;6.666;2022-12-18T05:20:23;-4.10;99.90
55211;DHT22;41082;52.822;6.666;2022-12-18T05:22:50;-4.10;99.90
55211;DHT22;41082;52.822;6.666;2022-12-18T05:25:15;-4.10;99.90
55211;DHT22;41082;52.822;6.666;2022-12-18T05:27:41;-4.20;99.90
55211;DHT22;41082;52.822;6.666;2022-12-18T05:30:07;-4.20;99.90
55211;DHT22;41082;52.822;6.666;2022-12-18T05:32:33;-4.20;99.90
55211;DHT22;41082;52.822;6.666;2022-12-18T05:34:59;-4.20;99.90
55211;DHT22;41082;52.822;6.666;2022-12-18T05:37:25;-4.30;99.90
55211;DHT22;41082;52.822;6.666;2022-12-18T05:39:50;-4.30;99.90
55211;DHT22;41082;52.822;6.666;2022-12-18T05:42:16;-4.30;99.90
55211;DHT22;41082;52.822;6.666;2022-12-18T05:44:41;-4.30;99.90
55211;DHT22;41082;52.822;6.666;2022-12-18T05:47:08;-4.40;99.90
55211;DHT22;41082;52.822;6.666;2022-12-18T05:49:33;-4.30;99.90
55211;DHT22;41082;52.822;6.666;2022-12-18T05:51:59;-4.40;99.90
55211;DHT22;41082;52.822;6.666;2022-12-18T05:54:27;-4.40;99.90
55211;DHT22;41082;52.822;6.666;2022-12-18T05:56:53;-4.40;99.90
55211;DHT22;41082;52.822;6.666;2022-12-18T05:59:19;-4.40;99.90
55211;DHT22;41082;52.822;6.666;2022-12-18T06:01:44;-4.40;99.90
55211;DHT22;41082;52.822;6.666;2022-12-18T06:04:10;-4.40;99.90
55211;DHT22;41082;52.822;6.666;2022-12-18T06:06:36;-4.50;99.90
55211;DHT22;41082;52.822;6.666;2022-12-18T06:09:03;-4.40;99.90
55211;DHT22;41082;52.822;6.666;2022-12-18T06:11:34;-4.50;99.90
55211;DHT22;41082;52.822;6.666;2022-12-18T06:14:00;-4.50;99.90
55211;DHT22;41082;52.822;6.666;2022-12-18T06:16:27;-4.40;99.90
55211;DHT22;41082;52.822;6.666;2022-12-18T06:18:53;-4.50;99.90
55211;DHT22;41082;52.822;6.666;2022-12-18T06:21:18;-4.50;99.90
55211;DHT22;41082;52.822;6.666;2022-12-18T06:23:45;-4.50;99.90
55211;DHT22;41082;52.822;6.666;2022-12-18T06:26:11;-4.50;99.90
55211;DHT22;41082;52.822;6.666;2022-12-18T06:28:37;-4.60;99.90
55211;DHT22;41082;52.822;6.666;2022-12-18T06:31:04;-4.60;99.90
55211;DHT22;41082;52.822;6.666;2022-12-18T06:33:30;-4.60;99.90
55211;DHT22;41082;52.822;6.666;2022-12-18T06:36:22;-4.60;99.90
55211;DHT22;41082;52.822;6.666;2022-12-18T06:38:47;-4.60;99.90
55211;DHT22;41082;52.822;6.666;2022-12-18T06:41:18;-4.60;99.90
55211;DHT22;41082;52.822;6.666;2022-12-18T06:43:44;-4.60;99.90
55211;DHT22;41082;52.822;6.666;2022-12-18T06:46:10;-4.70;99.90
55211;DHT22;41082;52.822;6.666;2022-12-18T06:48:36;-4.70;99.90
55211;DHT22;41082;52.822;6.666;2022-12-18T06:51:01;-4.70;99.90
55211;DHT22;41082;52.822;6.666;2022-12-18T06:53:27;-4.70;99.90
55211;DHT22;41082;52.822;6.666;2022-12-18T06:55:59;-4.70;99.90
55211;DHT22;41082;52.822;6.666;2022-12-18T06:58:24;-4.70;99.90
55211;DHT22;41082;52.822;6.666;2022-12-18T07:00:50;-4.70;99.90
55211;DHT22;41082;52.822;6.666;2022-12-18T07:03:15;-4.80;99.90
55211;DHT22;41082;52.822;6.666;2022-12-18T07:05:41;-4.80;99.90
55211;DHT22;41082;52.822;6.666;2022-12-18T07:08:07;-4.70;99.90
55211;DHT22;41082;52.822;6.666;2022-12-18T07:10:33;-4.80;99.90
55211;DHT22;41082;52.822;6.666;2022-12-18T07:12:59;-4.80;99.90
55211;DHT22;41082;52.822;6.666;2022-12-18T07:15:24;-4.90;99.90
55211;DHT22;41082;52.822;6.666;2022-12-18T07:17:50;-4.80;99.90
55211;DHT22;41082;52.822;6.666;2022-12-18T07:20:15;-4.90;99.90
55211;DHT22;41082;52.822;6.666;2022-12-18T07:22:41;-4.90;99.90
55211;DHT22;41082;52.822;6.666;2022-12-18T07:25:07;-4.90;99.90
55211;DHT22;41082;52.822;6.666;2022-12-18T07:27:32;-4.90;99.90
55211;DHT22;41082;52.822;6.666;2022-12-18T07:29:58;-4.90;99.90
55211;DHT22;41082;52.822;6.666;2022-12-18T07:32:24;-4.90;99.90
55211;DHT22;41082;52.822;6.666;2022-12-18T07:34:49;-4.90;99.90
55211;DHT22;41082;52.822;6.666;2022-12-18T07:37:15;-4.90;99.90
55211;DHT22;41082;52.822;6.666;2022-12-18T07:39:40;-4.90;99.90
55211;DHT22;41082;52.822;6.666;2022-12-18T07:42:09;-4.90;99.90
55211;DHT22;41082;52.822;6.666;2022-12-18T07:44:53;-4.90;99.90
55211;DHT22;41082;52.822;6.666;2022-12-18T07:47:19;-4.90;99.90
55211;DHT22;41082;52.822;6.666;2022-12-18T07:49:44;-4.90;99.90
55211;DHT22;41082;52.822;6.666;2022-12-18T07:52:10;-4.90;99.90
55211;DHT22;41082;52.822;6.666;2022-12-18T07:54:37;-4.80;99.90
55211;DHT22;41082;52.822;6.666;2022-12-18T07:57:03;-4.80;99.90
55211;DHT22;41082;52.822;6.666;2022-12-18T07:59:29;-4.80;99.90
55211;DHT22;41082;52.822;6.666;2022-12-18T08:01:54;-4.70;99.90
55211;DHT22;41082;52.822;6.666;2022-12-18T08:04:20;-4.70;99.90
55211;DHT22;41082;52.822;6.666;2022-12-18T08:06:46;-4.70;99.90
55211;DHT22;41082;52.822;6.666;2022-12-18T08:09:11;-4.60;99.90
55211;DHT22;41082;52.822;6.666;2022-12-18T08:11:37;-4.60;99.90
55211;DHT22;41082;52.822;6.666;2022-12-18T08:14:03;-4.60;99.90
55211;DHT22;41082;52.822;6.666;2022-12-18T08:16:28;-4.60;99.90
55211;DHT22;41082;52.822;6.666;2022-12-18T08:18:54;-4.50;99.90
55211;DHT22;41082;52.822;6.666;2022-12-18T08:21:26;-4.50;99.90
55211;DHT22;41082;52.822;6.666;2022-12-18T08:23:54;-4.40;99.90
55211;DHT22;41082;52.822;6.666;2022-12-18T08:26:21;-4.40;99.90
55211;DHT22;41082;52.822;6.666;2022-12-18T08:28:48;-4.40;99.90
55211;DHT22;41082;52.822;6.666;2022-12-18T08:31:13;-4.40;99.90
55211;DHT22;41082;52.822;6.666;2022-12-18T08:33:40;-4.30;99.90
55211;DHT22;41082;52.822;6.666;2022-12-18T08:36:06;-4.30;99.90
55211;DHT22;41082;52.822;6.666;2022-12-18T08:38:32;-4.30;99.90
55211;DHT22;41082;52.822;6.666;2022-12-18T08:41:09;-4.20;99.90
55211;DHT22;41082;52.822;6.666;2022-12-18T08:43:35;-4.20;99.90
55211;DHT22;41082;52.822;6.666;2022-12-18T08:46:20;-4.10;99.90
55211;DHT22;41082;52.822;6.666;2022-12-18T08:48:47;-4.10;99.90
55211;DHT22;41082;52.822;6.666;2022-12-18T08:51:15;-4.10;99.90
55211;DHT22;41082;52.822;6.666;2022-12-18T08:53:41;-4.10;99.90
55211;DHT22;41082;52.822;6.666;2022-12-18T08:56:07;-4.00;99.90
55211;DHT22;41082;52.822;6.666;2022-12-18T08:58:33;-4.00;99.90
55211;DHT22;41082;52.822;6.666;2022-12-18T09:01:04;-4.00;99.90
55211;DHT22;41082;52.822;6.666;2022-12-18T09:03:30;-3.90;99.90
55211;DHT22;41082;52.822;6.666;2022-12-18T09:05:56;-3.90;99.90
55211;DHT22;41082;52.822;6.666;2022-12-18T09:08:21;-3.80;99.90
55211;DHT22;41082;52.822;6.666;2022-12-18T09:10:49;-3.80;99.90
55211;DHT22;41082;52.822;6.666;2022-12-18T09:13:16;-3.70;99.90
55211;DHT22;41082;52.822;6.666;2022-12-18T09:15:46;-3.70;99.90
55211;DHT22;41082;52.822;6.666;2022-12-18T09:18:13;-3.60;99.90
55211;DHT22;41082;52.822;6.666;2022-12-18T09:20:40;-3.60;99.90
55211;DHT22;41082;52.822;6.666;2022-12-18T09:23:06;-3.50;99.90
55211;DHT22;41082;52.822;6.666;2022-12-18T09:25:33;-3.50;99.90
55211;DHT22;41082;52.822;6.666;2022-12-18T09:28:00;-3.50;99.90
55211;DHT22;41082;52.822;6.666;2022-12-18T09:30:26;-3.40;99.90
55211;DHT22;41082;52.822;6.666;2022-12-18T09:32:55;-3.40;99.90
55211;DHT22;41082;52.822;6.666;2022-12-18T09:35:21;-3.30;99.90
55211;DHT22;41082;52.822;6.666;2022-12-18T09:37:46;-3.30;99.90
55211;DHT22;41082;52.822;6.666;2022-12-18T09:40:18;-3.20;99.90
55211;DHT22;41082;52.822;6.666;2022-12-18T09:43:05;-3.20;99.90
55211;DHT22;41082;52.822;6.666;2022-12-18T09:45:42;-3.10;99.90
55211;DHT22;41082;52.822;6.666;2022-12-18T09:48:32;-3.10;99.90
55211;DHT22;41082;52.822;6.666;2022-12-18T09:51:04;-3.00;99.90
55211;DHT22;41082;52.822;6.666;2022-12-18T09:53:34;-3.00;99.90
55211;DHT22;41082;52.822;6.666;2022-12-18T09:56:03;-2.90;99.90
55211;DHT22;41082;52.822;6.666;2022-12-18T09:58:35;-2.80;99.90
55211;DHT22;41082;52.822;6.666;2022-12-18T10:01:02;-2.80;99.90
55211;DHT22;41082;52.822;6.666;2022-12-18T10:03:27;-2.70;99.90
55211;DHT22;41082;52.822;6.666;2022-12-18T10:06:06;-2.60;99.90
55211;DHT22;41082;52.822;6.666;2022-12-18T10:14:05;-2.50;99.90
55211;DHT22;41082;52.822;6.666;2022-12-18T10:19:37;-2.40;99.90
55211;DHT22;41082;52.822;6.666;2022-12-18T10:22:18;-2.30;99.90
55211;DHT22;41082;52.822;6.666;2022-12-18T10:27:39;-2.30;99.90
55211;DHT22;41082;52.822;6.666;2022-12-18T10:30:32;-2.30;99.90
55211;DHT22;41082;52.822;6.666;2022-12-18T10:33:00;-2.30;99.90
55211;DHT22;41082;52.822;6.666;2022-12-18T10:35:26;-2.30;99.90
55211;DHT22;41082;52.822;6.666;2022-12-18T10:38:07;-2.30;99.90
55211;DHT22;41082;52.822;6.666;2022-12-18T10:43:25;-2.20;99.90
55211;DHT22;41082;52.822;6.666;2022-12-18T10:46:04;-2.20;99.90
55211;DHT22;41082;52.822;6.666;2022-12-18T10:48:32;-2.20;99.90
55211;DHT22;41082;52.822;6.666;2022-12-18T10:50:58;-2.20;99.90
55211;DHT22;41082;52.822;6.666;2022-12-18T10:53:29;-2.10;99.90
55211;DHT22;41082;52.822;6.666;2022-12-18T10:56:00;-2.10;99.90
55211;DHT22;41082;52.822;6.666;2022-12-18T10:58:37;-2.00;99.90
55211;DHT22;41082;52.822;6.666;2022-12-18T11:01:17;-2.00;99.90
55211;DHT22;41082;52.822;6.666;2022-12-18T11:03:43;-2.00;99.90
55211;DHT22;41082;52.822;6.666;2022-12-18T11:06:14;-1.90;99.90
55211;DHT22;41082;52.822;6.666;2022-12-18T11:08:42;-1.90;99.90
55211;DHT22;41082;52.822;6.666;2022-12-18T11:11:21;-1.80;99.90
55211;DHT22;41082;52.822;6.666;2022-12-18T11:14:03;-1.80;99.90
55211;DHT22;41082;52.822;6.666;2022-12-18T11:16:30;-1.70;99.90
55211;DHT22;41082;52.822;6.666;2022-12-18T11:19:29;-1.70;99.90
55211;DHT22;41082;52.822;6.666;2022-12-18T11:21:56;-1.60;99.90
55211;DHT22;41082;52.822;6.666;2022-12-18T11:24:35;-1.60;99.90
55211;DHT22;41082;52.822;6.666;2022-12-18T11:27:05;-1.60;99.90
55211;DHT22;41082;52.822;6.666;2022-12-18T11:29:32;-1.50;99.90
55211;DHT22;41082;52.822;6.666;2022-12-18T11:32:24;-1.50;99.90
55211;DHT22;41082;52.822;6.666;2022-12-18T11:35:04;-1.40;99.90
55211;DHT22;41082;52.822;6.666;2022-12-18T11:37:36;-1.40;99.90
55211;DHT22;41082;52.822;6.666;2022-12-18T11:40:09;-1.40;99.90
55211;DHT22;41082;52.822;6.666;2022-12-18T11:42:51;-1.30;99.90
55211;DHT22;41082;52.822;6.666;2022-12-18T11:45:34;-1.30;99.90
55211;DHT22;41082;52.822;6.666;2022-12-18T11:48:09;-1.20;99.90
55211;DHT22;41082;52.822;6.666;2022-12-18T11:50:55;-1.20;99.90
55211;DHT22;41082;52.822;6.666;2022-12-18T11:53:22;-1.20;99.90
55211;DHT22;41082;52.822;6.666;2022-12-18T11:58:48;-1.10;99.90
55211;DHT22;41082;52.822;6.666;2022-12-18T12:04:06;-0.90;99.90
55211;DHT22;41082;52.822;6.666;2022-12-18T12:17:47;-1.00;99.90
55211;DHT22;41082;52.822;6.666;2022-12-18T12:20:22;-0.90;99.90
55211;DHT22;41082;52.822;6.666;2022-12-18T12:22:58;-0.90;99.90
55211;DHT22;41082;52.822;6.666;2022-12-18T12:25:46;-0.90;99.90
55211;DHT22;41082;52.822;6.666;2022-12-18T12:31:40;-0.80;99.90
55211;DHT22;41082;52.822;6.666;2022-12-18T12:34:26;-0.80;99.90
55211;DHT22;41082;52.822;6.666;2022-12-18T12:39:27;-0.80;99.90
55211;DHT22;41082;52.822;6.666;2022-12-18T12:41:54;-0.80;99.90
55211;DHT22;41082;52.822;6.666;2022-12-18T12:44:48;-0.80;99.90
55211;DHT22;41082;52.822;6.666;2022-12-18T12:47:19;-0.80;99.90
55211;DHT22;41082;52.822;6.666;2022-12-18T12:49:46;-0.80;99.90
55211;DHT22;41082;52.822;6.666;2022-12-18T12:52:20;-0.70;99.90
55211;DHT22;41082;52.822;6.666;2022-12-18T12:54:47;-0.70;99.90
55211;DHT22;41082;52.822;6.666;2022-12-18T12:57:46;-0.70;99.90
55211;DHT22;41082;52.822;6.666;2022-12-18T13:00:16;-0.60;99.90
55211;DHT22;41082;52.822;6.666;2022-12-18T13:08:28;-0.60;99.90
55211;DHT22;41082;52.822;6.666;2022-12-18T13:10:56;-0.50;99.90
55211;DHT22;41082;52.822;6.666;2022-12-18T13:13:53;-0.60;99.90
55211;DHT22;41082;52.822;6.666;2022-12-18T13:16:24;-0.50;99.90
55211;DHT22;41082;52.822;6.666;2022-12-18T13:18:51;-0.50;99.90
55211;DHT22;41082;52.822;6.666;2022-12-18T13:21:24;-0.50;99.90
55211;DHT22;41082;52.822;6.666;2022-12-18T13:23:53;-0.50;99.90
55211;DHT22;41082;52.822;6.666;2022-12-18T13:34:23;-0.40;99.90
55211;DHT22;41082;52.822;6.666;2022-12-18T13:36:50;-0.40;99.90
55211;DHT22;41082;52.822;6.666;2022-12-18T13:41:46;-0.40;99.90
55211;DHT22;41082;52.822;6.666;2022-12-18T13:46:59;-0.40;99.90
55211;DHT22;41082;52.822;6.666;2022-12-18T13:49:41;-0.40;99.90
55211;DHT22;41082;52.822;6.666;2022-12-18T13:52:21;-0.30;99.90
55211;DHT22;41082;52.822;6.666;2022-12-18T13:54:51;-0.40;99.90
55211;DHT22;41082;52.822;6.666;2022-12-18T13:57:37;-0.30;99.90
55211;DHT22;41082;52.822;6.666;2022-12-18T14:02:49;-0.40;99.90
55211;DHT22;41082;52.822;6.666;2022-12-18T14:05:34;-0.40;99.90
55211;DHT22;41082;52.822;6.666;2022-12-18T14:08:05;-0.40;99.90
55211;DHT22;41082;52.822;6.666;2022-12-18T14:10:32;-0.40;99.90
55211;DHT22;41082;52.822;6.666;2022-12-18T14:13:06;-0.40;99.90
55211;DHT22;41082;52.822;6.666;2022-12-18T14:15:36;-0.40;99.90
55211;DHT22;41082;52.822;6.666;2022-12-18T14:20:35;-0.50;99.90
55211;DHT22;41082;52.822;6.666;2022-12-18T14:23:02;-0.40;99.90
55211;DHT22;41082;52.822;6.666;2022-12-18T14:25:29;-0.40;99.90
55211;DHT22;41082;52.822;6.666;2022-12-18T14:30:36;-0.40;99.90
55211;DHT22;41082;52.822;6.666;2022-12-18T14:33:23;-0.50;99.90
55211;DHT22;41082;52.822;6.666;2022-12-18T14:36:01;-0.50;99.90
55211;DHT22;41082;52.822;6.666;2022-12-18T14:38:33;-0.50;99.90
55211;DHT22;41082;52.822;6.666;2022-12-18T14:41:01;-0.50;99.90
55211;DHT22;41082;52.822;6.666;2022-12-18T14:43:29;-0.50;99.90
55211;DHT22;41082;52.822;6.666;2022-12-18T14:45:56;-0.60;99.90
55211;DHT22;41082;52.822;6.666;2022-12-18T14:48:35;-0.60;99.90
55211;DHT22;41082;52.822;6.666;2022-12-18T14:51:15;-0.60;99.90
55211;DHT22;41082;52.822;6.666;2022-12-18T14:53:44;-0.60;99.90
55211;DHT22;41082;52.822;6.666;2022-12-18T14:56:21;-0.60;99.90
55211;DHT22;41082;52.822;6.666;2022-12-18T14:58:49;-0.60;99.90
55211;DHT22;41082;52.822;6.666;2022-12-18T15:02:01;-0.60;99.90
55211;DHT22;41082;52.822;6.666;2022-12-18T15:04:37;-0.70;99.90
55211;DHT22;41082;52.822;6.666;2022-12-18T15:09:37;-0.70;99.90
55211;DHT22;41082;52.822;6.666;2022-12-18T15:12:03;-0.70;99.90
55211;DHT22;41082;52.822;6.666;2022-12-18T15:14:38;-0.70;99.90
55211;DHT22;41082;52.822;6.666;2022-12-18T15:17:12;-0.70;99.90
55211;DHT22;41082;52.822;6.666;2022-12-18T15:19:41;-0.80;99.90
55211;DHT22;41082;52.822;6.666;2022-12-18T15:22:24;-0.80;99.90
55211;DHT22;41082;52.822;6.666;2022-12-18T15:24:50;-0.70;99.90
55211;DHT22;41082;52.822;6.666;2022-12-18T15:27:31;-0.80;99.90
55211;DHT22;41082;52.822;6.666;2022-12-18T15:32:36;-0.80;99.90
55211;DHT22;41082;52.822;6.666;2022-12-18T15:35:23;-0.80;99.90
55211;DHT22;41082;52.822;6.666;2022-12-18T15:37:52;-0.80;99.90
55211;DHT22;41082;52.822;6.666;2022-12-18T15:40:22;-0.80;99.90
55211;DHT22;41082;52.822;6.666;2022-12-18T15:42:52;-0.80;99.90
55211;DHT22;41082;52.822;6.666;2022-12-18T15:45:37;-0.80;99.90
55211;DHT22;41082;52.822;6.666;2022-12-18T15:48:15;-0.80;99.90
55211;DHT22;41082;52.822;6.666;2022-12-18T15:50:43;-0.80;99.90
55211;DHT22;41082;52.822;6.666;2022-12-18T15:53:09;-0.90;99.90
55211;DHT22;41082;52.822;6.666;2022-12-18T15:55:34;-0.90;99.90
55211;DHT22;41082;52.822;6.666;2022-12-18T15:58:18;-0.90;99.90
55211;DHT22;41082;52.822;6.666;2022-12-18T16:00:46;-0.90;99.90
55211;DHT22;41082;52.822;6.666;2022-12-18T16:03:11;-0.90;99.90
55211;DHT22;41082;52.822;6.666;2022-12-18T16:05:37;-0.90;99.90
55211;DHT22;41082;52.822;6.666;2022-12-18T16:08:02;-0.90;99.90
55211;DHT22;41082;52.822;6.666;2022-12-18T16:10:28;-0.90;99.90
55211;DHT22;41082;52.822;6.666;2022-12-18T16:12:54;-0.90;99.90
55211;DHT22;41082;52.822;6.666;2022-12-18T16:15:20;-0.90;99.90
55211;DHT22;41082;52.822;6.666;2022-12-18T16:17:46;-0.90;99.90
55211;DHT22;41082;52.822;6.666;2022-12-18T16:20:18;-0.80;99.90
55211;DHT22;41082;52.822;6.666;2022-12-18T16:22:45;-0.80;99.90
55211;DHT22;41082;52.822;6.666;2022-12-18T16:25:26;-0.80;99.90
55211;DHT22;41082;52.822;6.666;2022-12-18T16:27:54;-0.90;99.90
55211;DHT22;41082;52.822;6.666;2022-12-18T16:30:29;-0.80;99.90
55211;DHT22;41082;52.822;6.666;2022-12-18T16:32:56;-0.80;99.90
55211;DHT22;41082;52.822;6.666;2022-12-18T16:35:23;-0.80;99.90
55211;DHT22;41082;52.822;6.666;2022-12-18T16:37:49;-0.80;99.90
55211;DHT22;41082;52.822;6.666;2022-12-18T16:40:16;-0.80;99.90
55211;DHT22;41082;52.822;6.666;2022-12-18T16:42:44;-0.80;99.90
55211;DHT22;41082;52.822;6.666;2022-12-18T16:45:13;-0.80;99.90
55211;DHT22;41082;52.822;6.666;2022-12-18T16:47:39;-0.80;99.90
55211;DHT22;41082;52.822;6.666;2022-12-18T16:50:05;-0.80;99.90
55211;DHT22;41082;52.822;6.666;2022-12-18T16:52:31;-0.80;99.90
55211;DHT22;41082;52.822;6.666;2022-12-18T16:54:56;-0.80;99.90
55211;DHT22;41082;52.822;6.666;2022-12-18T16:57:22;-0.80;99.90
55211;DHT22;41082;52.822;6.666;2022-12-18T16:59:48;-0.70;99.90
55211;DHT22;41082;52.822;6.666;2022-12-18T17:02:16;-0.70;99.90
55211;DHT22;41082;52.822;6.666;2022-12-18T17:04:43;-0.70;99.90
55211;DHT22;41082;52.822;6.666;2022-12-18T17:07:09;-0.70;99.90
55211;DHT22;41082;52.822;6.666;2022-12-18T17:09:35;-0.70;99.90
55211;DHT22;41082;52.822;6.666;2022-12-18T17:12:01;-0.70;99.90
55211;DHT22;41082;52.822;6.666;2022-12-18T17:14:27;-0.70;99.90
55211;DHT22;41082;52.822;6.666;2022-12-18T17:16:53;-0.70;99.90
55211;DHT22;41082;52.822;6.666;2022-12-18T17:19:19;-0.60;99.90
55211;DHT22;41082;52.822;6.666;2022-12-18T17:21:47;-0.70;99.90
55211;DHT22;41082;52.822;6.666;2022-12-18T17:24:14;-0.70;99.90
55211;DHT22;41082;52.822;6.666;2022-12-18T17:26:40;-0.70;99.90
55211;DHT22;41082;52.822;6.666;2022-12-18T17:29:05;-0.60;99.90